createdAt,value
2022-08-03T00:00:31.716Z,66.52
2022-08-03T00:02:59.812Z,63.98
2022-08-03T00:05:27.529Z,63.44
2022-08-03T00:07:55.479Z,63.32
2022-08-03T00:10:23.967Z,61.70
2022-08-03T00:12:51.606Z,59.99
2022-08-03T00:15:19.298Z,62.70
2022-08-03T00:17:52.845Z,61.61
2022-08-03T00:23:10.064Z,62.10
2022-08-03T00:25:38.237Z,69.75
2022-08-03T00:28:06.256Z,65.45
2022-08-03T00:30:37.059Z,63.63
2022-08-03T00:33:04.741Z,69.87
2022-08-03T00:35:50.072Z,64.51
2022-08-03T00:38:19.682Z,69.07
2022-08-03T00:40:47.561Z,61.14
2022-08-03T00:43:15.219Z,68.79
2022-08-03T00:45:44.214Z,59.20
2022-08-03T00:48:29.458Z,60.38
2022-08-03T00:51:00.668Z,64.52
2022-08-03T00:53:28.318Z,64.80
2022-08-03T00:55:56.040Z,67.86
2022-08-03T00:58:24.808Z,64.64
2022-08-03T01:00:52.550Z,67.14
2022-08-03T01:03:20.269Z,62.43
2022-08-03T01:06:03.297Z,67.42
2022-08-03T01:08:48.913Z,69.93
2022-08-03T01:11:20.009Z,69.99
2022-08-03T01:14:04.476Z,63.92
2022-08-03T01:16:57.381Z,69.62
2022-08-03T01:19:24.968Z,65.86
2022-08-03T01:21:55.858Z,73.61
2022-08-03T01:24:52.191Z,74.53
2022-08-03T01:27:23.647Z,69.47
2022-08-03T01:29:56.445Z,67.56
2022-08-03T01:32:58.533Z,67.56
2022-08-03T01:35:29.917Z,66.65
2022-08-03T01:38:03.369Z,65.19
2022-08-03T01:40:32.677Z,71.49
2022-08-03T01:43:02.572Z,73.60
2022-08-03T01:45:34.090Z,65.59
2022-08-03T01:48:03.043Z,69.03
2022-08-03T01:50:32.033Z,69.81
2022-08-03T01:53:00.358Z,65.04
2022-08-03T01:55:30.045Z,69.23
2022-08-03T01:58:06.177Z,65.95
2022-08-03T02:00:38.234Z,65.02
2022-08-03T02:03:07.317Z,65.58
2022-08-03T02:05:35.428Z,70.75
2022-08-03T02:08:04.831Z,65.90
2022-08-03T02:10:34.590Z,67.55
2022-08-03T02:13:04.553Z,63.99
2022-08-03T02:15:36.318Z,64.95
2022-08-03T02:18:06.471Z,73.69
2022-08-03T02:20:36.721Z,71.45
2022-08-03T02:23:06.923Z,71.75
2022-08-03T02:25:39.205Z,66.40
2022-08-03T02:28:10.929Z,62.48
2022-08-03T02:30:39.675Z,63.97
2022-08-03T02:33:11.392Z,62.42
2022-08-03T02:35:40.379Z,62.52
2022-08-03T02:38:10.638Z,65.34
2022-08-03T02:40:39.268Z,62.10
2022-08-03T02:43:09.622Z,68.37
2022-08-03T02:45:45.542Z,67.16
2022-08-03T02:48:16.755Z,66.29
2022-08-03T02:50:45.483Z,60.37
2022-08-03T02:53:14.028Z,61.05
2022-08-03T02:55:43.263Z,65.10
2022-08-03T02:58:15.031Z,67.13
2022-08-03T03:00:44.535Z,65.43
2022-08-03T03:03:12.991Z,62.09
2022-08-03T03:05:52.135Z,59.74
2022-08-03T03:08:26.027Z,67.28
2022-08-03T03:10:56.419Z,59.14
2022-08-03T03:13:24.560Z,63.72
2022-08-03T03:15:53.046Z,69.00
2022-08-03T03:18:22.862Z,57.16
2022-08-03T03:20:53.226Z,58.75
2022-08-03T03:23:25.418Z,58.47
2022-08-03T03:25:53.621Z,63.58
2022-08-03T03:28:22.087Z,60.59
2022-08-03T03:30:52.624Z,54.87
2022-08-03T03:33:22.241Z,53.02
2022-08-03T03:35:50.511Z,52.25
2022-08-03T03:38:18.613Z,51.93
2022-08-03T03:40:46.901Z,51.64
2022-08-03T03:43:14.780Z,51.58
2022-08-03T03:48:28.707Z,51.46
2022-08-03T03:50:57.646Z,51.07
2022-08-03T03:53:25.540Z,51.15
2022-08-03T03:56:01.181Z,51.17
2022-08-03T03:58:31.548Z,50.16
2022-08-03T04:00:59.929Z,49.38
2022-08-03T04:03:28.342Z,49.08
2022-08-03T04:06:14.757Z,48.35
2022-08-03T04:09:01.641Z,49.21
2022-08-03T04:11:33.549Z,47.69
2022-08-03T04:14:06.476Z,47.25
2022-08-03T04:16:35.673Z,46.71
2022-08-03T04:19:08.564Z,46.17
2022-08-03T04:21:38.544Z,45.68
2022-08-03T04:24:09.384Z,45.40
2022-08-03T04:26:39.884Z,45.30
2022-08-03T04:29:09.794Z,45.29
2022-08-03T04:31:38.828Z,45.16
2022-08-03T04:34:06.668Z,44.87
2022-08-03T04:36:37.807Z,45.62
2022-08-03T04:39:08.920Z,44.53
2022-08-03T04:42:07.329Z,44.45
2022-08-03T04:44:28.352Z,44.73
2022-08-03T04:46:57.426Z,44.87
2022-08-03T04:49:25.958Z,45.19
2022-08-03T04:51:53.644Z,45.42
2022-08-03T04:54:21.704Z,44.97
2022-08-03T04:56:49.314Z,44.45
2022-08-03T04:59:18.159Z,43.78
2022-08-03T05:01:46.279Z,43.38
2022-08-03T05:04:14.104Z,42.54
2022-08-03T05:06:48.028Z,41.48
2022-08-03T05:09:50.783Z,41.80
2022-08-03T05:12:07.170Z,41.24
2022-08-03T05:14:38.082Z,41.44
2022-08-03T05:17:06.192Z,41.10
2022-08-03T05:19:33.896Z,40.96
2022-08-03T05:22:02.043Z,40.58
2022-08-03T05:24:29.752Z,40.68
2022-08-03T05:26:57.415Z,40.28
2022-08-03T05:29:25.426Z,40.69
2022-08-03T05:31:53.049Z,40.35
2022-08-03T05:34:20.698Z,39.95
2022-08-03T05:36:48.793Z,39.86
2022-08-03T05:39:16.552Z,39.18
2022-08-03T05:41:44.292Z,38.95
2022-08-03T05:44:12.421Z,38.51
2022-08-03T05:46:40.035Z,38.55
2022-08-03T05:49:07.791Z,38.60
2022-08-03T05:51:35.932Z,39.04
2022-08-03T05:54:03.789Z,38.84
2022-08-03T05:56:31.512Z,37.96
2022-08-03T05:59:07.360Z,37.41
2022-08-03T06:01:47.330Z,36.94
2022-08-03T06:04:15.585Z,36.83
2022-08-03T06:06:43.893Z,35.50
2022-08-03T06:09:11.521Z,35.96
2022-08-03T06:11:40.630Z,35.75
2022-08-03T06:14:08.418Z,35.03
2022-08-03T06:16:36.278Z,34.96
2022-08-03T06:19:04.316Z,36.06
2022-08-03T06:21:32.216Z,34.59
2022-08-03T06:23:59.924Z,33.94
2022-08-03T06:26:30.765Z,33.84
2022-08-03T06:28:58.553Z,34.18
2022-08-03T06:31:32.680Z,34.20
2022-08-03T06:34:30.360Z,34.14
2022-08-03T06:36:52.271Z,34.16
2022-08-03T06:39:23.408Z,34.03
2022-08-03T06:41:52.174Z,33.42
2022-08-03T06:44:20.434Z,33.28
2022-08-03T06:46:48.255Z,33.13
2022-08-03T06:49:16.120Z,32.30
2022-08-03T06:52:04.060Z,32.19
2022-08-03T06:54:33.245Z,31.91
2022-08-03T06:57:01.650Z,31.73
2022-08-03T07:00:08.274Z,31.29
2022-08-03T07:02:19.951Z,31.19
2022-08-03T07:04:48.482Z,31.06
2022-08-03T07:07:16.125Z,30.72
2022-08-03T07:09:57.798Z,30.74
2022-08-03T07:12:29.784Z,30.33
2022-08-03T07:15:01.153Z,29.49
2022-08-03T07:17:35.924Z,29.80
2022-08-03T07:20:05.712Z,32.17
2022-08-03T07:22:33.903Z,25.45
2022-08-03T07:25:01.746Z,30.50
2022-08-03T07:27:30.959Z,28.89
2022-08-03T07:32:49.831Z,29.69
2022-08-03T07:35:25.320Z,28.52
2022-08-03T07:37:55.059Z,27.99
2022-08-03T07:40:23.195Z,27.56
2022-08-03T07:42:55.094Z,27.52
2022-08-03T07:45:24.043Z,27.31
2022-08-03T07:47:53.897Z,26.98
2022-08-03T07:50:22.670Z,27.54
2022-08-03T07:52:51.985Z,27.59
2022-08-03T07:55:21.328Z,27.22
2022-08-03T07:58:00.037Z,26.54
2022-08-03T08:00:27.829Z,28.23
2022-08-03T08:02:55.881Z,28.09
2022-08-03T08:05:23.599Z,28.07
2022-08-03T08:07:51.890Z,30.20
2022-08-03T08:10:20.198Z,29.46
2022-08-03T08:12:48.604Z,28.35
2022-08-03T08:15:16.472Z,27.16
2022-08-03T08:17:54.906Z,26.13
2022-08-03T08:20:30.481Z,30.22
2022-08-03T08:23:01.391Z,29.20
2022-08-03T08:25:30.561Z,26.22
2022-08-03T08:28:29.785Z,26.37
2022-08-03T08:30:46.689Z,24.34
2022-08-03T08:33:22.426Z,22.40
2022-08-03T08:35:53.492Z,27.59
2022-08-03T08:38:21.539Z,20.35
2022-08-03T08:40:49.984Z,22.15
2022-08-03T08:43:17.977Z,26.34
2022-08-03T08:45:46.314Z,20.28
2022-08-03T08:48:14.990Z,21.41
2022-08-03T08:50:43.534Z,20.84
2022-08-03T08:53:18.189Z,25.64
2022-08-03T08:55:58.248Z,24.67
2022-08-03T08:58:35.261Z,23.97
2022-08-03T09:01:04.467Z,24.47
2022-08-03T09:03:33.676Z,25.44
2022-08-03T09:06:05.738Z,25.11
2022-08-03T09:08:33.995Z,24.53
2022-08-03T09:11:01.689Z,19.81
2022-08-03T09:13:30.766Z,25.31
2022-08-03T09:16:14.225Z,22.51
2022-08-03T09:18:43.299Z,25.41
2022-08-03T09:21:31.762Z,27.02
2022-08-03T09:24:03.794Z,24.85
2022-08-03T09:26:34.593Z,19.11
2022-08-03T09:29:11.180Z,23.86
2022-08-03T09:31:46.482Z,19.60
2022-08-03T09:34:17.978Z,24.20
2022-08-03T09:36:50.999Z,24.09
2022-08-03T09:39:41.678Z,19.89
2022-08-03T09:42:27.865Z,29.18
2022-08-03T09:44:55.529Z,23.01
2022-08-03T09:47:30.846Z,28.29
2022-08-03T09:50:06.019Z,29.16
2022-08-03T09:52:39.502Z,28.11
2022-08-03T09:56:33.494Z,25.59
2022-08-03T10:00:56.456Z,29.70
2022-08-03T10:03:25.426Z,25.05
2022-08-03T10:05:59.054Z,24.09
2022-08-03T10:08:27.820Z,22.94
2022-08-03T10:10:55.598Z,27.40
2022-08-03T10:13:41.983Z,21.57
2022-08-03T10:16:23.954Z,24.68
2022-08-03T10:18:52.795Z,24.49
2022-08-03T10:21:21.432Z,28.11
2022-08-03T10:23:50.333Z,22.00
2022-08-03T10:26:19.558Z,26.49
2022-08-03T10:28:49.863Z,29.53
2022-08-03T10:31:18.827Z,21.93
2022-08-03T10:33:52.817Z,26.86
2022-08-03T10:36:24.900Z,23.32
2022-08-03T10:38:53.942Z,25.18
2022-08-03T10:41:22.732Z,21.29
2022-08-03T10:44:03.397Z,30.18
2022-08-03T10:46:33.620Z,22.13
2022-08-03T10:49:01.497Z,21.44
2022-08-03T10:51:32.444Z,24.51
2022-08-03T10:54:01.697Z,21.98
2022-08-03T10:56:51.490Z,23.09
2022-08-03T10:59:27.976Z,21.68
2022-08-03T11:02:00.270Z,23.78
2022-08-03T11:04:30.516Z,27.46
2022-08-03T11:07:19.915Z,27.50
2022-08-03T11:09:52.450Z,22.08
2022-08-03T11:12:29.851Z,21.70
2022-08-03T11:15:05.490Z,23.80
2022-08-03T11:17:46.646Z,30.80
2022-08-03T11:20:41.137Z,23.04
2022-08-03T11:23:08.886Z,19.73
2022-08-03T11:25:55.718Z,20.43
2022-08-03T11:28:28.230Z,20.11
2022-08-03T11:30:56.323Z,23.91
2022-08-03T11:33:33.604Z,26.73
2022-08-03T11:36:02.848Z,31.92
2022-08-03T11:38:30.598Z,26.56
2022-08-03T11:40:58.418Z,29.37
2022-08-03T11:43:31.373Z,31.67
2022-08-03T11:46:00.685Z,22.53
2022-08-03T11:48:39.119Z,23.64
2022-08-03T11:51:19.085Z,23.19
2022-08-03T11:53:49.902Z,24.73
2022-08-03T11:56:17.586Z,26.49
2022-08-03T11:59:01.745Z,26.99
2022-08-03T12:01:37.923Z,26.76
2022-08-03T12:04:06.616Z,25.17
2022-08-03T12:06:57.445Z,24.46
2022-08-03T12:09:25.544Z,24.57
2022-08-03T12:11:59.616Z,24.87
2022-08-03T12:14:48.890Z,24.13
2022-08-03T12:17:19.613Z,23.28
2022-08-03T12:19:47.931Z,23.93
2022-08-03T12:22:17.211Z,25.12
2022-08-03T12:24:47.255Z,25.28
2022-08-03T12:27:25.819Z,25.69
2022-08-03T12:32:40.219Z,25.72
2022-08-03T12:37:53.466Z,26.12
2022-08-03T12:40:28.452Z,24.00
2022-08-03T12:42:56.811Z,22.54
2022-08-03T12:45:25.756Z,21.81
2022-08-03T12:48:00.555Z,21.85
2022-08-03T12:50:31.396Z,21.93
2022-08-03T12:53:00.438Z,21.42
2022-08-03T12:55:56.621Z,21.43
2022-08-03T12:58:35.763Z,22.48
2022-08-03T13:01:09.538Z,23.53
2022-08-03T13:03:43.375Z,23.19
2022-08-03T13:06:15.140Z,23.37
2022-08-03T13:08:43.552Z,23.82
2022-08-03T13:11:23.706Z,23.83
2022-08-03T13:14:13.438Z,24.48
2022-08-03T13:16:44.601Z,26.65
2022-08-03T13:19:15.847Z,28.39
2022-08-03T13:21:53.813Z,28.36
2022-08-03T13:24:33.927Z,25.66
2022-08-03T13:28:10.993Z,26.36
2022-08-03T13:29:51.321Z,26.85
2022-08-03T13:32:19.475Z,25.99
2022-08-03T13:34:49.691Z,25.56
2022-08-03T13:40:04.733Z,28.94
2022-08-03T13:42:34.408Z,29.66
2022-08-03T13:45:02.757Z,31.05
2022-08-03T13:47:32.312Z,30.64
2022-08-03T13:50:02.942Z,32.23
2022-08-03T13:52:44.496Z,33.44
2022-08-03T13:55:12.866Z,33.12
2022-08-03T13:58:03.080Z,31.61
2022-08-03T14:00:34.992Z,29.19
2022-08-03T14:03:10.813Z,24.08
2022-08-03T14:05:40.578Z,22.64
2022-08-03T14:08:09.038Z,20.10
2022-08-03T14:10:38.559Z,18.46
2022-08-03T14:13:06.243Z,19.22
2022-08-03T14:15:37.924Z,18.80
2022-08-03T14:18:07.022Z,20.86
2022-08-03T14:20:38.581Z,21.26
2022-08-03T14:23:15.431Z,20.58
2022-08-03T14:25:51.555Z,19.79
2022-08-03T14:28:21.619Z,20.33
2022-08-03T14:30:50.161Z,20.92
2022-08-03T14:33:18.186Z,21.01
2022-08-03T14:35:45.895Z,21.58
2022-08-03T14:38:14.096Z,23.56
2022-08-03T14:40:42.035Z,22.30
2022-08-03T14:43:09.792Z,21.76
2022-08-03T14:45:38.604Z,21.16
2022-08-03T14:50:32.769Z,21.26
2022-08-03T14:50:57.107Z,22.24
2022-08-03T14:53:24.840Z,21.68
2022-08-03T14:55:53.731Z,22.61
2022-08-03T14:58:28.587Z,21.34
2022-08-03T15:00:56.793Z,21.17
2022-08-03T15:03:25.309Z,22.93
2022-08-03T15:05:53.726Z,25.32
2022-08-03T15:08:22.431Z,25.28
2022-08-03T15:10:50.886Z,25.89
2022-08-03T15:13:19.806Z,27.15
2022-08-03T15:15:48.332Z,28.32
2022-08-03T15:18:16.339Z,29.20
2022-08-03T15:20:45.965Z,28.79
2022-08-03T15:23:14.945Z,32.22
2022-08-03T15:26:28.792Z,31.51
2022-08-03T15:28:32.285Z,30.58
2022-08-03T15:31:00.750Z,31.45
2022-08-03T15:33:28.790Z,31.95
2022-08-03T15:35:57.098Z,33.96
2022-08-03T15:38:25.944Z,31.76
2022-08-03T15:40:54.954Z,33.13
2022-08-03T15:43:25.532Z,32.38
2022-08-03T15:48:41.740Z,34.02
2022-08-03T15:51:09.993Z,34.56
2022-08-03T15:53:39.417Z,33.44
2022-08-03T15:56:14.249Z,33.58
2022-08-03T15:58:59.573Z,34.85
2022-08-03T16:01:33.182Z,34.71
2022-08-03T16:04:01.296Z,35.61
2022-08-03T16:06:35.321Z,36.08
2022-08-03T16:09:05.676Z,36.06
2022-08-03T16:11:51.043Z,36.50
2022-08-03T16:14:34.651Z,34.17
2022-08-03T16:17:05.766Z,33.12
2022-08-03T16:19:33.808Z,32.83
2022-08-03T16:22:03.333Z,33.23
2022-08-03T16:24:31.163Z,34.39
2022-08-03T16:27:00.462Z,35.56
2022-08-03T16:29:28.967Z,36.90
2022-08-03T16:31:56.731Z,37.37
2022-08-03T16:34:43.405Z,37.70
2022-08-03T16:37:36.613Z,36.80
2022-08-03T16:39:59.211Z,36.50
2022-08-03T16:42:26.820Z,37.00
2022-08-03T16:44:54.557Z,36.92
2022-08-03T16:47:23.022Z,36.82
2022-08-03T16:49:54.715Z,37.21
2022-08-03T16:52:25.187Z,37.24
2022-08-03T16:54:54.063Z,38.07
2022-08-03T16:57:58.321Z,37.76
2022-08-03T17:00:11.850Z,38.27
2022-08-03T17:02:48.112Z,38.59
2022-08-03T17:05:16.564Z,39.09
2022-08-03T17:07:46.832Z,40.68
2022-08-03T17:13:03.790Z,41.08
2022-08-03T17:15:38.384Z,40.99
2022-08-03T17:18:24.379Z,40.87
2022-08-03T17:20:55.406Z,41.33
2022-08-03T17:23:35.248Z,42.32
2022-08-03T17:26:09.776Z,42.05
2022-08-03T17:28:50.093Z,43.23
2022-08-03T17:31:31.302Z,43.09
2022-08-03T17:34:04.213Z,42.94
2022-08-03T17:37:02.049Z,43.71
2022-08-03T17:39:41.751Z,44.22
2022-08-03T17:42:38.848Z,45.12
2022-08-03T17:44:58.224Z,45.57
2022-08-03T17:47:42.088Z,45.63
2022-08-03T17:50:24.806Z,45.15
2022-08-03T17:53:00.883Z,46.93
2022-08-03T17:55:56.942Z,46.64
2022-08-03T17:58:25.323Z,46.82
2022-08-03T18:02:00.442Z,47.45
2022-08-03T18:04:11.198Z,47.57
2022-08-03T18:06:55.716Z,47.51
2022-08-03T18:10:06.363Z,48.31
2022-08-03T18:12:26.139Z,49.96
2022-08-03T18:15:01.226Z,51.52
2022-08-03T18:17:55.805Z,51.61
2022-08-03T18:20:33.172Z,50.31
2022-08-03T18:23:09.868Z,50.39
2022-08-03T18:25:49.101Z,50.92
2022-08-03T18:28:38.804Z,50.95
2022-08-03T18:31:09.428Z,50.30
2022-08-03T18:34:19.158Z,50.99
2022-08-03T18:36:30.082Z,51.15
2022-08-03T18:39:02.580Z,52.63
2022-08-03T18:41:35.423Z,50.43
2022-08-03T18:47:15.915Z,51.24
2022-08-03T18:49:50.489Z,51.21
2022-08-03T18:52:27.623Z,51.71
2022-08-03T18:55:07.320Z,51.42
2022-08-03T18:57:49.269Z,50.95
2022-08-03T19:00:24.958Z,51.70
2022-08-03T19:03:20.583Z,49.45
2022-08-03T19:06:03.040Z,49.33
2022-08-03T19:08:56.050Z,50.10
2022-08-03T19:11:27.888Z,53.24
2022-08-03T19:13:57.225Z,53.89
2022-08-03T19:16:31.084Z,54.06
2022-08-03T19:19:01.731Z,55.31
2022-08-03T19:21:30.701Z,54.08
2022-08-03T19:24:06.590Z,54.69
2022-08-03T19:26:39.746Z,53.49
2022-08-03T19:29:14.910Z,53.77
2022-08-03T19:31:59.136Z,52.51
2022-08-03T19:34:29.016Z,53.51
2022-08-03T19:36:58.997Z,53.85
2022-08-03T19:39:26.972Z,56.21
2022-08-03T19:41:58.739Z,54.91
2022-08-03T19:44:38.110Z,57.32
2022-08-03T19:47:17.040Z,56.28
2022-08-03T19:50:06.045Z,56.88
2022-08-03T19:52:35.867Z,53.56
2022-08-03T19:55:12.180Z,53.18
2022-08-03T19:57:43.249Z,55.88
2022-08-03T20:00:13.909Z,53.74
2022-08-03T20:02:43.007Z,58.11
2022-08-03T20:05:15.356Z,59.26
2022-08-03T20:07:48.198Z,55.67
2022-08-03T20:10:17.030Z,54.41
2022-08-03T20:12:46.362Z,55.88
2022-08-03T20:15:18.391Z,57.52
2022-08-03T20:17:59.816Z,54.44
2022-08-03T20:20:32.937Z,53.39
2022-08-03T20:23:03.497Z,53.43
2022-08-03T20:28:26.777Z,55.66
2022-08-03T20:30:54.768Z,55.45
2022-08-03T20:33:27.639Z,53.73
2022-08-03T20:35:56.105Z,55.44
2022-08-03T20:39:07.935Z,53.15
2022-08-03T20:41:37.268Z,53.15
2022-08-03T20:44:06.466Z,52.63
2022-08-03T20:46:50.218Z,52.23
2022-08-03T20:49:23.231Z,52.62
2022-08-03T20:51:53.211Z,51.95
2022-08-03T20:54:30.533Z,55.11
2022-08-03T20:57:04.152Z,51.95
2022-08-03T21:02:30.112Z,53.58
2022-08-03T21:05:03.654Z,54.98
2022-08-03T21:08:04.952Z,53.51
2022-08-03T21:10:37.893Z,52.06
2022-08-03T21:13:04.792Z,50.76
2022-08-03T21:13:07.829Z,52.58
2022-08-03T21:13:25.211Z,51.01
2022-08-03T21:16:12.361Z,51.13
2022-08-03T21:18:52.269Z,52.39
2022-08-03T21:21:21.573Z,53.72
2022-08-03T21:23:51.482Z,51.24
2022-08-03T21:26:20.245Z,53.19
2022-08-03T21:28:49.115Z,55.45
2022-08-03T21:31:25.763Z,57.31
2022-08-03T21:33:55.941Z,55.81
2022-08-03T21:36:24.906Z,53.54
2022-08-03T21:38:56.469Z,53.51
2022-08-03T21:41:26.842Z,55.22
2022-08-03T21:43:54.598Z,54.06
2022-08-03T21:46:23.323Z,54.10
2022-08-03T21:48:54.721Z,52.93
2022-08-03T21:51:25.168Z,54.11
2022-08-03T21:54:03.870Z,55.61
2022-08-03T21:56:36.610Z,52.31
2022-08-03T22:01:55.355Z,54.52
2022-08-03T22:04:53.231Z,55.87
2022-08-03T22:07:14.731Z,57.79
2022-08-03T22:09:51.045Z,57.76
2022-08-03T22:12:21.717Z,58.57
2022-08-03T22:14:50.445Z,58.43
2022-08-03T22:17:55.060Z,61.42
2022-08-03T22:20:17.161Z,66.42
2022-08-03T22:22:55.744Z,60.06
2022-08-03T22:25:27.861Z,60.32
2022-08-03T22:27:55.635Z,57.45
2022-08-03T22:30:23.328Z,63.43
2022-08-03T22:32:53.830Z,62.44
2022-08-03T22:35:21.939Z,57.52
2022-08-03T22:37:52.632Z,57.07
2022-08-03T22:40:20.973Z,56.20
2022-08-03T22:42:52.128Z,56.51
2022-08-03T22:46:06.817Z,61.14
2022-08-03T22:48:08.815Z,62.21
2022-08-03T22:50:37.522Z,58.07
2022-08-03T22:53:07.045Z,59.70
2022-08-03T22:55:34.806Z,59.34
2022-08-03T22:58:02.922Z,58.79
2022-08-03T23:00:30.594Z,57.80
2022-08-03T23:03:00.713Z,59.57
2022-08-03T23:08:15.569Z,60.09
2022-08-03T23:10:47.334Z,58.87
2022-08-03T23:13:17.031Z,62.18
2022-08-03T23:15:51.619Z,65.99
2022-08-03T23:18:20.937Z,67.10
2022-08-03T23:20:52.937Z,66.67
2022-08-03T23:23:20.852Z,67.66
2022-08-03T23:25:50.128Z,70.37
2022-08-03T23:28:24.992Z,67.92
2022-08-03T23:31:07.585Z,67.58
2022-08-03T23:33:40.628Z,66.07
2022-08-03T23:36:31.113Z,68.48
2022-08-03T23:39:03.098Z,68.28
2022-08-03T23:41:32.869Z,65.20
2022-08-03T23:44:05.347Z,64.97
2022-08-03T23:46:36.943Z,64.50
2022-08-03T23:49:05.795Z,65.54
2022-08-03T23:52:03.827Z,65.25
2022-08-03T23:54:32.903Z,65.08
2022-08-03T23:57:09.305Z,64.66
2022-08-03T23:59:38.188Z,63.27
